createdAt,value
2023-05-02T00:02:22.721Z,12.60
2023-05-02T00:04:56.048Z,12.59
2023-05-02T00:07:31.617Z,12.56
2023-05-02T00:10:06.688Z,12.52
2023-05-02T00:12:37.483Z,12.49
2023-05-02T00:15:09.466Z,12.47
2023-05-02T00:17:44.910Z,12.44
2023-05-02T00:20:21.488Z,12.41
2023-05-02T00:22:57.991Z,12.37
2023-05-02T00:25:29.723Z,12.36
2023-05-02T00:27:59.592Z,12.35
2023-05-02T00:30:29.841Z,12.35
2023-05-02T00:33:08.759Z,12.35
2023-05-02T00:35:53.074Z,12.35
2023-05-02T00:38:40.917Z,12.34
2023-05-02T00:41:14.043Z,12.34
2023-05-02T00:43:47.183Z,12.33
2023-05-02T00:46:17.895Z,12.34
2023-05-02T00:48:51.788Z,12.35
2023-05-02T00:51:36.516Z,12.36
2023-05-02T00:54:12.305Z,12.38
2023-05-02T00:56:46.778Z,12.37
2023-05-02T00:59:21.463Z,12.36
2023-05-02T01:02:44.153Z,12.36
2023-05-02T01:05:36.840Z,12.33
2023-05-02T01:08:42.243Z,12.34
2023-05-02T01:17:05.393Z,12.30
2023-05-02T01:19:39.264Z,12.30
2023-05-02T01:22:12.078Z,12.29
2023-05-02T01:24:50.850Z,12.27
2023-05-02T01:27:28.709Z,12.25
2023-05-02T01:30:01.716Z,12.22
2023-05-02T01:32:35.531Z,12.19
2023-05-02T01:35:10.398Z,12.16
2023-05-02T01:37:42.837Z,12.15
2023-05-02T01:40:18.015Z,12.12
2023-05-02T01:42:52.288Z,12.11
2023-05-02T01:45:24.415Z,12.09
2023-05-02T01:47:55.972Z,12.06
2023-05-02T01:50:31.491Z,12.01
2023-05-02T01:53:04.550Z,11.96
2023-05-02T01:55:42.510Z,11.93
2023-05-02T01:58:16.502Z,11.92
2023-05-02T02:00:47.740Z,11.89
2023-05-02T02:03:21.201Z,11.85
2023-05-02T02:05:56.060Z,11.82
2023-05-02T02:08:26.371Z,11.83
2023-05-02T02:11:11.458Z,11.82
2023-05-02T02:13:49.954Z,11.78
2023-05-02T02:16:26.387Z,11.75
2023-05-02T02:18:59.573Z,11.73
2023-05-02T02:21:33.186Z,11.73
2023-05-02T02:24:10.007Z,11.72
2023-05-02T02:26:41.018Z,11.70
2023-05-02T02:29:16.434Z,11.70
2023-05-02T02:32:01.457Z,11.68
2023-05-02T02:34:32.533Z,11.64
2023-05-02T02:37:12.255Z,11.62
2023-05-02T02:39:54.829Z,11.60
2023-05-02T02:42:48.708Z,11.57
2023-05-02T02:45:31.941Z,11.57
2023-05-02T02:48:30.570Z,11.59
2023-05-02T02:51:22.784Z,11.61
2023-05-02T02:54:26.799Z,11.62
2023-05-02T02:57:13.490Z,11.62
2023-05-02T03:00:14.237Z,11.63
2023-05-02T03:02:48.064Z,11.62
2023-05-02T03:05:19.228Z,11.63
2023-05-02T03:08:05.080Z,11.64
2023-05-02T03:10:38.277Z,11.65
2023-05-02T03:13:12.218Z,11.67
2023-05-02T03:15:59.610Z,11.66
2023-05-02T03:18:34.389Z,11.67
2023-05-02T03:21:09.916Z,11.68
2023-05-02T03:23:42.856Z,11.71
2023-05-02T03:26:18.101Z,11.74
2023-05-02T03:29:05.025Z,11.74
2023-05-02T03:31:44.852Z,11.76
2023-05-02T03:34:15.591Z,11.78
2023-05-02T03:37:01.855Z,11.78
2023-05-02T03:39:41.488Z,11.77
2023-05-02T03:42:15.713Z,11.76
2023-05-02T03:44:47.114Z,11.79
2023-05-02T03:47:20.531Z,11.80
2023-05-02T03:49:53.642Z,11.85
2023-05-02T03:52:25.599Z,11.87
2023-05-02T03:54:56.216Z,11.91
2023-05-02T03:57:34.373Z,11.94
2023-05-02T04:00:11.237Z,11.96
2023-05-02T04:02:52.237Z,12.01
2023-05-02T04:05:39.543Z,12.05
2023-05-02T04:08:17.948Z,12.07
2023-05-02T04:10:55.140Z,12.12
2023-05-02T04:13:38.546Z,12.18
2023-05-02T04:16:37.298Z,12.23
2023-05-02T04:19:14.203Z,12.29
2023-05-02T04:21:44.129Z,12.36
2023-05-02T04:24:15.286Z,12.41
2023-05-02T04:26:48.471Z,12.45
2023-05-02T04:29:28.516Z,12.47
2023-05-02T04:31:58.919Z,12.52
2023-05-02T04:34:31.759Z,12.62
2023-05-02T04:37:10.589Z,12.68
2023-05-02T04:39:50.421Z,12.77
2023-05-02T04:42:25.912Z,12.83
2023-05-02T04:45:17.549Z,12.88
2023-05-02T04:47:54.993Z,12.96
2023-05-02T04:50:28.700Z,13.06
2023-05-02T04:53:01.198Z,13.16
2023-05-02T04:55:31.680Z,13.24
2023-05-02T04:58:07.214Z,13.30
2023-05-02T05:00:43.912Z,13.33
2023-05-02T05:03:23.523Z,13.29
2023-05-02T05:06:11.734Z,13.34
2023-05-02T05:08:45.969Z,13.40
2023-05-02T05:11:16.339Z,13.44
2023-05-02T05:13:46.638Z,13.42
2023-05-02T05:16:24.733Z,13.51
2023-05-02T05:18:55.812Z,13.60
2023-05-02T05:21:31.646Z,13.69
2023-05-02T05:24:09.757Z,13.78
2023-05-02T05:26:40.289Z,13.91
2023-05-02T05:29:17.298Z,13.99
2023-05-02T05:31:48.256Z,14.09
2023-05-02T05:37:32.747Z,14.32
2023-05-02T05:40:11.614Z,14.39
2023-05-02T05:42:44.712Z,14.46
2023-05-02T05:45:26.293Z,14.54
2023-05-02T05:48:02.151Z,14.61
2023-05-02T05:50:38.130Z,14.68
2023-05-02T05:53:10.710Z,14.70
2023-05-02T05:55:42.999Z,14.66
2023-05-02T05:58:16.911Z,14.61
2023-05-02T06:00:50.997Z,14.57
2023-05-02T06:03:21.793Z,14.53
2023-05-02T06:05:55.779Z,14.45
2023-05-02T06:08:28.295Z,14.47
2023-05-02T06:11:01.401Z,14.42
2023-05-02T06:13:34.961Z,14.50
2023-05-02T06:16:11.853Z,14.57
2023-05-02T06:18:45.555Z,14.61
2023-05-02T06:21:20.920Z,14.66
2023-05-02T06:23:56.940Z,14.69
2023-05-02T06:26:27.427Z,14.73
2023-05-02T06:29:01.854Z,14.76
2023-05-02T06:31:34.916Z,14.79
2023-05-02T06:34:05.067Z,14.80
2023-05-02T06:36:46.086Z,14.82
2023-05-02T06:39:19.808Z,14.84
2023-05-02T06:42:08.832Z,14.87
2023-05-02T06:44:39.632Z,14.86
2023-05-02T06:47:13.662Z,14.91
2023-05-02T06:49:46.665Z,14.92
2023-05-02T06:52:31.444Z,14.95
2023-05-02T06:55:03.995Z,14.98
2023-05-02T06:57:34.507Z,15.04
2023-05-02T07:00:10.951Z,15.11
2023-05-02T07:03:06.658Z,15.21
2023-05-02T07:05:54.990Z,15.39
2023-05-02T07:08:41.448Z,15.64
2023-05-02T07:11:48.691Z,15.83
2023-05-02T07:14:25.343Z,15.95
2023-05-02T07:17:08.254Z,16.08
2023-05-02T07:19:39.061Z,16.25
2023-05-02T07:22:22.866Z,16.42
2023-05-02T07:25:04.205Z,16.56
2023-05-02T07:27:34.469Z,16.59
2023-05-02T07:30:08.775Z,16.56
2023-05-02T07:32:42.164Z,16.58
2023-05-02T07:35:12.712Z,16.62
2023-05-02T07:37:42.017Z,16.69
2023-05-02T07:40:21.672Z,16.92
2023-05-02T07:45:42.993Z,17.97
2023-05-02T07:48:17.445Z,18.38
2023-05-02T07:51:06.963Z,18.69
2023-05-02T07:53:43.820Z,19.08
2023-05-02T07:56:26.420Z,19.61
2023-05-02T07:58:59.627Z,20.13
2023-05-02T08:01:33.421Z,20.49
2023-05-02T08:04:05.259Z,20.66
2023-05-02T08:06:38.680Z,20.77
2023-05-02T08:09:12.169Z,20.82
2023-05-02T08:11:43.340Z,20.84
2023-05-02T08:14:22.959Z,20.94
2023-05-02T08:16:56.262Z,21.12
2023-05-02T08:19:29.242Z,21.27
2023-05-02T08:22:00.491Z,21.60
2023-05-02T08:24:43.638Z,21.97
2023-05-02T08:28:11.367Z,22.31
2023-05-02T08:30:51.220Z,22.38
2023-05-02T08:36:58.716Z,22.70
2023-05-02T08:39:33.460Z,23.00
2023-05-02T08:42:13.720Z,23.05
2023-05-02T08:44:59.072Z,22.94
2023-05-02T08:47:37.752Z,22.97
2023-05-02T08:50:14.777Z,23.16
2023-05-02T08:52:46.736Z,23.31
2023-05-02T08:55:40.392Z,23.49
2023-05-02T09:01:42.254Z,23.72
2023-05-02T09:04:40.662Z,23.86
2023-05-02T09:07:20.887Z,23.94
2023-05-02T09:10:07.037Z,24.12
2023-05-02T09:12:39.820Z,24.34
2023-05-02T09:31:55.456Z,25.74
2023-05-02T09:34:51.924Z,25.54
2023-05-02T09:37:53.994Z,25.33
2023-05-02T09:41:11.099Z,25.26
2023-05-02T09:43:44.891Z,25.32
2023-05-02T09:46:38.007Z,25.57
2023-05-02T09:49:13.729Z,25.82
2023-05-02T09:51:53.529Z,25.85
2023-05-02T09:54:40.754Z,25.83
2023-05-02T09:57:38.479Z,25.73
2023-05-02T10:00:17.780Z,25.73
2023-05-02T10:02:58.673Z,25.86
2023-05-02T10:05:46.142Z,25.88
2023-05-02T10:08:31.791Z,25.69
2023-05-02T10:11:26.583Z,25.61
2023-05-02T10:17:13.622Z,25.67
2023-05-02T10:20:04.471Z,25.56
2023-05-02T10:22:37.911Z,25.41
2023-05-02T10:25:26.252Z,25.22
2023-05-02T10:28:06.577Z,24.95
2023-05-02T10:30:45.159Z,24.70
2023-05-02T10:33:24.469Z,24.50
2023-05-02T10:36:31.358Z,24.34
2023-05-02T10:39:25.705Z,24.36
2023-05-02T10:42:09.469Z,24.31
2023-05-02T10:44:47.320Z,24.13
2023-05-02T10:47:32.492Z,23.96
2023-05-02T10:50:22.608Z,23.69
2023-05-02T10:53:03.083Z,23.48
2023-05-02T10:55:55.928Z,23.38
2023-05-02T10:59:37.266Z,23.32
2023-05-02T11:02:52.249Z,23.06
2023-05-02T11:05:58.639Z,22.84
2023-05-02T11:08:46.061Z,22.87
2023-05-02T11:11:54.768Z,22.97
2023-05-02T11:14:59.201Z,22.99
2023-05-02T11:19:05.187Z,22.87
2023-05-02T11:21:51.744Z,22.81
2023-05-02T11:24:44.874Z,22.93
2023-05-02T11:27:47.626Z,22.86
2023-05-02T11:30:58.398Z,22.85
2023-05-02T11:34:05.239Z,22.75
2023-05-02T11:36:43.706Z,22.74
2023-05-02T11:39:26.129Z,22.73
2023-05-02T11:42:07.044Z,22.75
2023-05-02T11:45:10.509Z,22.72
2023-05-02T11:48:00.263Z,22.72
2023-05-02T11:50:51.079Z,22.69
2023-05-02T11:53:35.606Z,22.68
2023-05-02T11:56:25.062Z,22.65
2023-05-02T11:59:07.079Z,22.54
2023-05-02T12:02:01.198Z,22.34
2023-05-02T12:05:14.850Z,22.16
2023-05-02T12:08:02.809Z,22.09
2023-05-02T12:10:49.648Z,22.03
2023-05-02T12:13:27.800Z,21.99
2023-05-02T12:16:09.896Z,21.88
2023-05-02T12:18:46.337Z,21.76
2023-05-02T12:21:24.745Z,21.78
2023-05-02T12:24:03.387Z,21.80
2023-05-02T12:26:34.114Z,21.75
2023-05-02T12:29:10.159Z,21.80
2023-05-02T12:32:03.198Z,21.87
2023-05-02T12:34:42.126Z,21.90
2023-05-02T12:37:32.150Z,21.96
2023-05-02T12:40:18.500Z,21.92
2023-05-02T12:43:09.104Z,21.94
2023-05-02T12:45:56.827Z,21.99
2023-05-02T12:48:46.819Z,22.08
2023-05-02T12:51:28.515Z,22.17
2023-05-02T12:54:05.245Z,22.19
2023-05-02T12:56:46.860Z,22.08
2023-05-02T12:59:35.007Z,22.02
2023-05-02T13:02:36.991Z,21.96
2023-05-02T13:05:47.779Z,21.85
2023-05-02T13:08:24.317Z,21.76
2023-05-02T13:10:59.749Z,21.71
2023-05-02T13:13:36.922Z,21.69
2023-05-02T13:16:30.848Z,21.70
2023-05-02T13:19:14.493Z,21.71
2023-05-02T13:21:52.954Z,21.63
2023-05-02T13:24:35.884Z,21.55
2023-05-02T13:27:14.640Z,21.45
2023-05-02T13:30:08.867Z,21.40
2023-05-02T13:32:49.421Z,21.38
2023-05-02T13:35:20.567Z,21.44
2023-05-02T13:37:53.322Z,21.46
2023-05-02T13:40:30.886Z,21.41
2023-05-02T13:43:08.507Z,21.35
2023-05-02T13:45:43.524Z,21.30
2023-05-02T13:48:16.455Z,21.31
2023-05-02T13:50:50.776Z,21.34
2023-05-02T13:53:21.408Z,21.37
2023-05-02T13:56:31.721Z,21.34
2023-05-02T13:59:22.826Z,21.14
2023-05-02T14:02:05.715Z,21.10
2023-05-02T14:04:41.134Z,21.10
2023-05-02T14:07:13.345Z,21.17
2023-05-02T14:09:52.441Z,21.22
2023-05-02T14:12:31.086Z,21.22
2023-05-02T14:15:04.909Z,21.13
2023-05-02T14:17:43.655Z,21.10
2023-05-02T14:20:24.063Z,21.04
2023-05-02T14:23:07.634Z,20.98
2023-05-02T14:25:56.893Z,20.98
2023-05-02T14:28:46.770Z,20.95
2023-05-02T14:31:40.808Z,20.87
2023-05-02T14:34:16.752Z,20.77
2023-05-02T14:36:51.645Z,20.70
2023-05-02T14:39:30.980Z,20.76
2023-05-02T14:42:04.677Z,20.84
2023-05-02T14:44:40.876Z,20.82
2023-05-02T14:47:17.024Z,20.75
2023-05-02T14:49:53.299Z,20.68
2023-05-02T14:52:26.978Z,20.71
2023-05-02T14:55:04.175Z,20.72
2023-05-02T14:57:36.662Z,20.69
2023-05-02T15:00:12.988Z,20.65
2023-05-02T15:02:47.750Z,20.61
2023-05-02T15:05:27.574Z,20.55
2023-05-02T15:08:02.036Z,20.50
2023-05-02T15:10:42.840Z,20.45
2023-05-02T15:13:18.339Z,20.43
2023-05-02T15:15:57.786Z,20.42
2023-05-02T15:18:28.550Z,20.36
2023-05-02T15:21:09.936Z,20.28
2023-05-02T15:23:45.996Z,20.22
2023-05-02T15:26:28.097Z,20.19
2023-05-02T15:29:01.199Z,20.16
2023-05-02T15:31:52.679Z,20.10
2023-05-02T15:34:28.475Z,20.04
2023-05-02T15:37:09.133Z,20.05
2023-05-02T15:39:50.818Z,20.06
2023-05-02T15:42:48.116Z,19.99
2023-05-02T15:45:21.371Z,19.94
2023-05-02T15:48:01.143Z,19.94
2023-05-02T15:50:35.323Z,19.95
2023-05-02T15:53:19.105Z,19.91
2023-05-02T15:55:58.177Z,19.78
2023-05-02T15:58:40.713Z,19.62
2023-05-02T16:01:29.675Z,19.57
2023-05-02T16:04:22.259Z,19.52
2023-05-02T16:07:06.780Z,19.49
2023-05-02T16:09:50.675Z,19.50
2023-05-02T16:12:26.001Z,19.43
2023-05-02T16:14:58.229Z,19.33
2023-05-02T16:17:42.745Z,19.22
2023-05-02T16:20:38.945Z,19.12
2023-05-02T16:23:33.651Z,19.03
2023-05-02T16:26:12.703Z,18.98
2023-05-02T16:29:03.213Z,18.94
2023-05-02T16:31:51.488Z,18.85
2023-05-02T16:34:43.453Z,18.78
2023-05-02T16:37:46.688Z,18.69
2023-05-02T16:40:45.342Z,18.57
2023-05-02T16:47:16.461Z,18.33
2023-05-02T16:50:15.595Z,18.29
2023-05-02T16:53:15.774Z,18.28
2023-05-02T16:56:21.102Z,18.17
2023-05-02T16:59:26.964Z,18.10
2023-05-02T17:02:18.922Z,18.00
2023-05-02T17:05:13.880Z,17.89
2023-05-02T17:07:54.255Z,17.83
2023-05-02T17:11:01.512Z,17.77
2023-05-02T17:14:16.821Z,17.66
2023-05-02T17:20:25.089Z,17.44
2023-05-02T17:23:16.236Z,17.40
2023-05-02T17:25:56.084Z,17.35
2023-05-02T17:28:46.574Z,17.33
2023-05-02T17:32:09.047Z,17.27
2023-05-02T17:35:07.689Z,17.18
2023-05-02T17:38:06.908Z,17.14
2023-05-02T17:40:56.664Z,17.12
2023-05-02T17:44:22.002Z,17.03
2023-05-02T17:47:24.557Z,16.97
2023-05-02T17:50:39.100Z,16.93
2023-05-02T17:53:36.003Z,16.86
2023-05-02T17:59:19.487Z,16.78
2023-05-02T18:02:10.165Z,16.77
2023-05-02T18:05:22.046Z,16.73
2023-05-02T18:08:38.562Z,16.68
2023-05-02T18:11:48.268Z,16.62
2023-05-02T18:14:43.445Z,16.56
2023-05-02T18:17:49.613Z,16.54
2023-05-02T18:20:35.848Z,16.51
2023-05-02T18:23:17.490Z,16.50
2023-05-02T18:25:56.174Z,16.48
2023-05-02T18:28:44.626Z,16.47
2023-05-02T18:31:29.877Z,16.44
2023-05-02T18:34:04.974Z,16.38
2023-05-02T18:36:44.577Z,16.33
2023-05-02T18:39:51.174Z,16.27
2023-05-02T18:42:41.901Z,16.21
2023-05-02T18:45:45.846Z,16.15
2023-05-02T18:48:32.806Z,16.11
2023-05-02T18:51:24.168Z,16.05
2023-05-02T18:54:02.090Z,16.01
2023-05-02T19:11:17.711Z,15.69
2023-05-02T19:14:21.822Z,15.64
2023-05-02T19:31:39.354Z,15.44
2023-05-02T19:34:24.718Z,15.42
2023-05-02T19:37:34.295Z,15.39
2023-05-02T19:41:41.752Z,15.35
2023-05-02T19:44:54.089Z,15.26
2023-05-02T19:47:46.324Z,15.20
2023-05-02T19:50:38.593Z,15.20
2023-05-02T19:53:20.088Z,15.19
2023-05-02T19:55:55.106Z,15.16
2023-05-02T19:58:54.924Z,15.16
2023-05-02T20:01:38.017Z,15.11
2023-05-02T20:04:13.617Z,15.10
2023-05-02T20:07:29.199Z,15.09
2023-05-02T20:10:19.804Z,15.06
2023-05-02T20:13:04.615Z,15.03
2023-05-02T20:15:49.837Z,15.01
2023-05-02T20:18:22.953Z,14.99
2023-05-02T20:20:55.775Z,14.96
2023-05-02T20:23:26.160Z,14.92
2023-05-02T20:26:01.734Z,14.89
2023-05-02T20:28:31.782Z,14.85
2023-05-02T20:31:09.542Z,14.80
2023-05-02T20:34:04.794Z,14.75
2023-05-02T20:37:02.886Z,14.71
2023-05-02T20:39:35.542Z,14.72
2023-05-02T20:42:06.214Z,14.71
2023-05-02T20:45:05.266Z,14.69
2023-05-02T20:47:48.852Z,14.64
2023-05-02T20:50:27.315Z,14.52
2023-05-02T20:53:10.694Z,14.47
2023-05-02T20:55:41.309Z,14.42
2023-05-02T20:58:17.984Z,14.40
2023-05-02T21:01:36.364Z,14.35
2023-05-02T21:04:13.329Z,14.30
2023-05-02T21:06:50.931Z,14.29
2023-05-02T21:09:31.463Z,14.27
2023-05-02T21:12:04.957Z,14.25
2023-05-02T21:14:36.196Z,14.22
2023-05-02T21:17:08.572Z,14.19
2023-05-02T21:20:03.912Z,14.16
2023-05-02T21:22:50.182Z,14.10
2023-05-02T21:25:26.822Z,14.10
2023-05-02T21:27:58.997Z,14.04
2023-05-02T21:30:34.014Z,14.01
2023-05-02T21:33:13.664Z,13.96
2023-05-02T21:35:44.286Z,13.89
2023-05-02T21:38:17.890Z,13.83
2023-05-02T21:40:48.528Z,13.76
2023-05-02T21:43:19.470Z,13.71
2023-05-02T21:45:52.867Z,13.65
2023-05-02T21:48:26.035Z,13.59
2023-05-02T21:51:11.973Z,13.57
2023-05-02T21:53:42.998Z,13.53
2023-05-02T21:56:13.486Z,13.50
2023-05-02T21:58:44.197Z,13.48
2023-05-02T22:01:19.839Z,13.48
2023-05-02T22:03:50.601Z,13.49
2023-05-02T22:06:25.325Z,13.48
2023-05-02T22:08:58.717Z,13.47
2023-05-02T22:11:36.318Z,13.47
2023-05-02T22:14:12.343Z,13.47
2023-05-02T22:16:43.724Z,13.46
2023-05-02T22:19:18.746Z,13.43
2023-05-02T22:21:50.711Z,13.40
2023-05-02T22:24:24.608Z,13.39
2023-05-02T22:26:56.684Z,13.37
2023-05-02T22:29:34.874Z,13.35
2023-05-02T22:32:08.590Z,13.32
2023-05-02T22:35:09.528Z,13.27
2023-05-02T22:37:40.361Z,13.24
2023-05-02T22:40:15.840Z,13.20
2023-05-02T22:42:50.004Z,13.18
2023-05-02T22:45:20.250Z,13.16
2023-05-02T22:47:54.094Z,13.13
2023-05-02T22:50:31.129Z,13.10
2023-05-02T22:53:10.887Z,13.10
2023-05-02T22:55:44.265Z,13.08
2023-05-02T22:58:25.979Z,13.07
2023-05-02T23:00:57.109Z,13.07
2023-05-02T23:03:32.878Z,13.07
2023-05-02T23:06:03.798Z,13.06
2023-05-02T23:08:39.846Z,13.07
2023-05-02T23:11:15.102Z,13.07
2023-05-02T23:13:47.678Z,13.06
2023-05-02T23:16:20.295Z,13.01
2023-05-02T23:19:01.480Z,13.00
2023-05-02T23:21:32.656Z,12.94
2023-05-02T23:24:04.108Z,12.86
2023-05-02T23:26:41.813Z,12.81
2023-05-02T23:29:17.152Z,12.76
2023-05-02T23:31:58.372Z,12.70
2023-05-02T23:35:03.064Z,12.63
2023-05-02T23:37:34.506Z,12.58
2023-05-02T23:40:18.666Z,12.55
2023-05-02T23:43:02.914Z,12.54
2023-05-02T23:48:21.270Z,12.56
2023-05-02T23:50:51.609Z,12.57
2023-05-02T23:53:22.123Z,12.56
2023-05-02T23:55:52.324Z,12.54
2023-05-02T23:58:22.334Z,12.51
